Latest Weather Observations for Tindal

IDD60801

Issued at 1:31 pm CST Saturday 31 January 2015 (issued every 30 minutes, with the page automatically refreshed every 10 minutes)

About weather observations | Map of weather stations | Latest weather observations for NT | Other Formats
Station Details ID: 014932 Name: TINDAL RAAF Lat: -14.52 Lon: 132.38 Height: 133.6 m
Data from the previous 72 hours. | See also: Recent months at Tindal
Date/Time
CST
Temp
°C
App
Temp
°C
Dew
Point
Rel
Hum
%
Delta-T
°C
Wind Press
QNH
hPa
Press
MSL
hPa
Rain
since 9 am
mm
Dir
 
Spd
km/h
Gust
km/h
Spd
kts
Gust
kts
31/01:30pm 32.9 36.1 23.0 56 6.9 W 11 17 6 9 1007.7 - 0.0
31/01:00pm 31.9 33.5 22.9 59 6.2 W 19 26 10 14 1008.2 - 0.0
31/12:30pm 32.2 35.0 24.3 63 5.6 W 17 24 9 13 1008.5 - 0.0
31/12:00pm 31.8 34.7 24.4 65 5.2 WSW 17 20 9 11 1008.9 1007.8 0.0
31/11:30am 30.4 32.1 23.1 65 5.0 W 19 28 10 15 1009.3 - 0.0
31/11:00am 30.8 34.4 24.4 68 4.5 WNW 13 20 7 11 1009.6 - 0.0
31/10:30am 30.0 32.1 23.7 69 4.4 W 19 30 10 16 1009.8 - 0.0
31/10:00am 28.5 31.3 23.6 75 3.4 WNW 15 24 8 13 1009.8 - 0.0
31/09:30am 27.7 29.6 23.5 78 2.9 WNW 19 24 10 13 1009.7 - 0.0
31/09:00am 27.1 29.6 23.8 82 2.3 WNW 17 24 9 13 1009.6 1008.5 9.4
31/08:30am 26.0 29.6 23.7 87 1.6 WNW 11 17 6 9 1009.4 - 9.4
31/08:00am 25.0 28.8 23.4 91 1.1 W 9 11 5 6 1009.3 - 9.4
31/07:30am 24.4 28.0 23.0 92 0.9 WNW 9 11 5 6 1008.8 - 9.4
31/07:00am 24.3 28.3 23.1 93 0.8 WNW 7 9 4 5 1008.3 - 9.4
31/06:30am 24.1 29.2 22.7 92 0.9 CALM 0 0 0 0 1007.7 - 9.4
31/06:00am 24.0 28.9 23.0 94 0.7 NNW 2 6 1 3 1007.6 1006.6 9.4
31/05:30am 24.0 28.9 23.0 94 0.7 WNW 2 9 1 5 1007.7 - 9.4
31/05:00am 24.1 29.2 22.7 92 0.9 CALM 0 0 0 0 1007.5 - 9.4
31/04:30am 24.2 28.7 23.0 93 0.8 W 4 6 2 3 1007.4 - 9.4
31/04:00am 24.3 28.8 22.9 92 0.9 WNW 4 7 2 4 1007.6 - 9.4
31/03:30am 24.3 28.4 22.9 92 0.9 W 6 9 3 5 1007.8 - 9.4
31/03:00am 24.4 28.5 23.0 92 1.0 W 6 7 3 4 1007.9 1006.9 9.4
31/02:30am 24.4 28.2 22.8 91 1.1 WSW 7 9 4 5 1008.1 - 9.4
31/02:00am 24.4 28.2 22.7 90 1.1 WNW 7 9 4 5 1008.2 - 9.4
31/01:30am 24.4 28.1 22.5 89 1.3 NNW 7 11 4 6 1008.3 - 9.4
31/01:00am 24.6 28.4 22.8 90 1.2 NW 7 11 4 6 1008.9 - 9.4
31/12:30am 24.7 29.0 23.3 92 1.0 NNW 6 9 3 5 1009.4 - 9.4
31/12:00am 24.7 28.4 23.3 92 1.0 NNW 9 15 5 8 1009.8 1008.7 9.4
 
Date/Time
CST
Temp
°C
App
Temp
°C
Dew
Point
Rel
Hum
%
Delta-T
°C
Wind Press
QNH
hPa
Press
MSL
hPa
Rain
since 9 am
mm
Dir
 
Spd
km/h
Gust
km/h
Spd
kts
Gust
kts
30/11:30pm 24.7 28.3 23.1 91 1.1 NNW 9 11 5 6 1010.2 - 9.4
30/11:00pm 24.8 28.3 22.9 89 1.3 NNW 9 11 5 6 1010.1 - 9.4
30/10:30pm 24.7 27.3 22.6 88 1.4 NW 13 17 7 9 1010.1 - 9.4
30/10:00pm 24.9 27.5 22.6 87 1.6 N 13 15 7 8 1009.9 - 9.4
30/09:30pm 25.2 28.8 22.3 84 2.0 N 7 9 4 5 1010.0 - 9.4
30/09:00pm 24.6 27.3 22.1 86 1.7 E 11 15 6 8 1009.8 1008.7 9.4
30/08:30pm 24.7 26.1 22.6 88 1.4 ESE 19 24 10 13 1009.6 - 9.2
30/08:00pm 24.6 27.9 22.5 88 1.4 N 9 13 5 7 1008.0 - 9.2
30/07:30pm 24.2 26.5 22.8 92 0.9 N 15 20 8 11 1007.6 - 9.2
30/07:07pm 24.6 25.6 22.8 90 1.2 N 22 39 12 21 1007.7 - 9.0
30/07:04pm 24.7 25.1 23.1 91 1.1 NNW 26 41 14 22 1007.6 - 9.0
30/07:00pm 24.8 24.5 23.2 91 1.1 NNW 30 43 16 23 1007.4 - 9.0
30/06:51pm 25.1 24.4 23.2 89 1.3 NW 32 46 17 25 1007.1 - 8.8
30/06:30pm 25.2 24.7 22.9 87 1.6 WNW 30 41 16 22 1007.2 - 3.6
30/06:28pm 25.5 25.2 22.6 84 2.0 WNW 28 39 15 21 1007.3 - 2.2
30/06:00pm 29.7 29.1 21.9 63 5.3 NNW 28 39 15 21 1006.1 1005.1 0.0
30/05:59pm 29.8 29.2 22.0 63 5.3 N 28 39 15 21 1006.0 - 0.0
30/05:30pm 34.0 35.5 18.9 41 9.9 S 9 15 5 8 1004.8 - 0.0
30/05:00pm 35.1 37.8 22.1 47 8.9 S 11 15 6 8 1004.4 - 0.0
30/04:30pm 35.0 36.3 17.2 34 11.5 SE 6 7 3 4 1004.4 - 0.0
30/04:00pm 35.2 36.3 17.9 36 11.3 SE 9 13 5 7 1004.5 - 0.0
30/03:30pm 34.9 36.0 18.0 36 11.0 E 9 13 5 7 1004.7 - 0.0
30/03:00pm 35.0 37.1 19.4 40 10.4 W 7 15 4 8 1005.1 1004.0 0.0
30/02:30pm 34.9 37.3 21.5 45 9.1 SW 11 17 6 9 1005.7 - 0.0
30/02:00pm 33.9 35.9 19.9 43 9.3 WNW 9 15 5 8 1006.2 - 0.0
30/01:30pm 34.3 37.9 22.0 48 8.4 W 6 11 3 6 1006.6 - 0.0
30/01:00pm 33.6 35.9 20.7 46 8.7 NW 9 17 5 9 1007.2 - 0.0
30/12:30pm 33.1 36.0 22.5 53 7.3 NW 11 15 6 8 1007.7 - 0.0
30/12:00pm 32.4 35.1 22.2 55 7.0 W 11 19 6 10 1008.1 1007.1 0.0
30/11:30am 32.4 36.0 23.1 58 6.4 WSW 9 15 5 8 1008.3 - 0.0
30/11:00am 31.7 34.6 21.8 55 6.7 WSW 9 17 5 9 1008.3 - 0.0
30/10:30am 30.7 34.3 22.3 61 5.7 WSW 7 11 4 6 1008.7 - 0.0
30/10:00am 30.0 33.6 22.4 63 5.2 WSW 7 13 4 7 1008.8 - 0.0
30/09:30am 29.4 32.3 22.4 66 4.8 W 11 15 6 8 1008.9 - 0.0
30/09:00am 28.4 31.0 22.6 71 4.0 WNW 13 15 7 8 1008.8 1007.7 0.0
30/08:30am 27.7 31.3 22.4 73 3.6 W 7 11 4 6 1008.9 - 0.0
30/08:00am 26.9 30.2 22.5 77 3.0 NW 9 11 5 6 1008.8 - 0.0
30/07:30am 26.0 29.8 22.7 82 2.2 NNW 7 9 4 5 1008.7 - 0.0
30/07:00am 25.0 28.4 22.7 87 1.6 NNW 9 11 5 6 1008.5 - 0.0
30/06:30am 25.0 28.7 22.5 86 1.7 NNW 7 9 4 5 1008.2 - 0.0
30/06:00am 24.9 28.8 22.6 87 1.6 W 6 7 3 4 1008.0 1007.0 0.0
30/05:30am 25.1 28.7 22.4 85 1.8 WNW 7 9 4 5 1007.7 - 0.0
30/05:00am 25.4 28.7 22.5 84 2.0 W 9 13 5 7 1007.3 - 0.0
30/04:30am 25.6 28.8 22.3 82 2.2 WNW 9 13 5 7 1007.1 - 0.0
30/04:00am 25.7 29.0 22.6 83 2.1 WNW 9 9 5 5 1007.2 - 0.0
30/03:30am 25.9 29.2 22.6 82 2.2 NW 9 11 5 6 1007.2 - 0.0
30/03:00am 26.0 29.9 22.9 83 2.1 WNW 7 9 4 5 1007.2 1006.2 0.0
30/02:30am 26.2 30.1 22.9 82 2.2 W 7 9 4 5 1007.2 - 0.0
30/02:00am 26.3 30.7 23.4 84 2.0 W 6 7 3 4 1007.4 - 0.0
30/01:30am 26.5 30.9 23.4 83 2.1 W 6 7 3 4 1007.5 - 0.0
30/01:00am 26.9 33.0 24.4 86 1.7 CALM 0 0 0 0 1007.7 - 0.0
30/12:30am 27.0 32.4 23.3 80 2.5 CALM 0 0 0 0 1007.8 - 0.0
30/12:00am 27.4 32.2 22.1 73 3.6 CALM 0 0 0 0 1008.1 1007.1 0.0
 
Date/Time
CST
Temp
°C
App
Temp
°C
Dew
Point
Rel
Hum
%
Delta-T
°C
Wind Press
QNH
hPa
Press
MSL
hPa
Rain
since 9 am
mm
Dir
 
Spd
km/h
Gust
km/h
Spd
kts
Gust
kts
29/11:30pm 27.5 31.5 22.7 75 3.3 NE 6 7 3 4 1008.3 - 0.0
29/11:00pm 27.9 31.9 23.1 75 3.3 ENE 7 9 4 5 1008.3 - 0.0
29/10:30pm 27.8 33.0 24.2 81 2.5 E 4 13 2 7 1008.0 - 0.0
29/10:00pm 28.6 34.6 24.2 77 3.1 CALM 0 2 0 1 1007.7 - 0.0
29/09:30pm 29.1 33.3 23.1 70 4.1 SE 6 7 3 4 1007.5 - 0.0
29/09:00pm 29.1 33.7 23.8 73 3.7 SSE 6 6 3 3 1007.2 1006.2 0.0
29/08:30pm 29.3 34.5 25.1 78 3.0 S 7 9 4 5 1007.0 - 0.0
29/08:00pm 29.8 34.3 24.0 71 4.0 NE 7 9 4 5 1006.5 - 0.0
29/07:30pm 32.3 36.3 20.5 49 7.9 CALM 0 0 0 0 1005.9 - 0.0
29/07:00pm 33.3 36.6 19.0 42 9.4 CALM 0 0 0 0 1005.3 - 0.0
29/06:30pm 34.0 36.8 20.4 45 9.1 SSE 6 7 3 4 1004.9 - 0.0
29/06:00pm 34.7 37.8 20.3 43 9.7 S 4 7 2 4 1004.5 1003.4 0.0
29/05:30pm 34.4 37.1 20.7 44 9.2 SE 7 15 4 8 1004.3 - 0.0
29/05:00pm 34.5 36.7 19.7 41 9.9 SE 7 13 4 7 1004.1 - 0.0
29/04:30pm 34.5 36.2 19.3 40 10.1 SE 9 17 5 9 1004.2 - 0.0
29/04:00pm 34.4 36.6 21.1 45 9.0 SSE 11 19 6 10 1004.5 - 0.0
29/03:30pm 34.6 36.9 19.4 40 10.1 SE 6 9 3 5 1004.9 - 0.0
29/03:00pm 34.4 35.7 19.2 40 10.1 SE 11 15 6 8 1005.1 1004.0 0.0
29/02:30pm 34.0 36.4 19.6 42 9.6 ENE 6 7 3 4 1005.4 - 0.0
29/02:00pm 33.7 35.9 20.5 46 8.9 SSW 9 13 5 7 1005.7 - 0.0
29/01:30pm 33.0 35.5 19.8 45 8.8 N 6 11 3 6 1006.2 - 0.0
29/01:00pm 32.7 34.5 19.6 46 8.7 ESE 9 13 5 7 1006.7 - 0.0
29/12:30pm 31.9 34.2 21.4 53 7.1 W 11 15 6 8 1007.1 - 0.0
29/12:00pm 31.8 35.5 22.5 58 6.4 W 7 15 4 8 1007.4 1006.4 0.0
29/11:30am 31.1 34.8 23.2 63 5.5 WNW 9 15 5 8 1007.5 - 0.0
29/11:00am 29.9 32.6 22.1 63 5.3 WNW 11 17 6 9 1007.9 - 0.0
29/10:30am 29.0 32.0 22.7 69 4.3 WNW 11 15 6 8 1008.3 - 0.0
29/10:00am 28.7 31.6 23.1 71 3.8 WNW 13 17 7 9 1008.7 - 0.0
29/09:30am 27.4 30.1 22.1 73 3.6 WNW 11 17 6 9 1008.7 - 0.0
29/09:00am 26.7 29.2 22.5 78 2.9 WNW 13 17 7 9 1008.6 1007.5 0.0
29/08:30am 25.7 28.4 22.2 81 2.4 W 11 15 6 8 1008.2 - 0.0
29/08:00am 25.1 28.0 22.4 85 1.8 W 11 15 6 8 1007.9 - 0.0
29/07:30am 24.3 27.9 22.4 89 1.3 W 7 9 4 5 1007.6 - 0.0
29/07:00am 23.3 26.4 22.1 93 0.8 W 9 11 5 6 1007.4 - 0.0
29/06:30am 23.1 26.1 21.9 93 0.8 W 9 11 5 6 1007.1 - 0.0
29/06:00am 23.3 26.8 21.9 92 0.9 SW 6 9 3 5 1006.9 1005.9 0.0
29/05:30am 23.5 26.4 21.8 90 1.1 NW 9 11 5 6 1006.8 - 0.0
29/05:00am 23.6 26.9 21.9 90 1.1 WNW 7 9 4 5 1006.6 - 0.0
29/04:30am 23.8 27.3 22.1 90 1.1 NNW 7 7 4 4 1006.7 - 0.0
29/04:00am 24.4 27.7 21.9 86 1.7 N 7 9 4 5 1006.7 - 0.0
29/03:30am 24.6 28.1 22.1 86 1.7 N 7 9 4 5 1006.6 - 0.0
29/03:00am 24.6 27.2 21.9 85 1.8 NNW 11 15 6 8 1006.7 1005.7 0.0
29/02:30am 25.1 26.2 22.0 83 2.1 NNW 19 28 10 15 1006.7 - 0.0
29/02:00am 24.8 27.5 22.1 85 1.8 NNW 11 15 6 8 1006.8 - 0.0
29/01:30am 25.3 27.9 22.0 82 2.2 NNW 11 15 6 8 1006.7 - 0.0
29/01:00am 25.3 27.9 22.0 82 2.2 NNW 11 13 6 7 1007.1 - 0.0
29/12:30am 25.8 28.6 22.3 81 2.4 NNW 11 13 6 7 1007.3 - 0.0
29/12:00am 26.8 30.0 22.4 77 3.0 N 9 13 5 7 1007.5 1006.5 0.0
 
Date/Time
CST
Temp
°C
App
Temp
°C
Dew
Point
Rel
Hum
%
Delta-T
°C
Wind Press
QNH
hPa
Press
MSL
hPa
Rain
since 9 am
mm
Dir
 
Spd
km/h
Gust
km/h
Spd
kts
Gust
kts
28/11:30pm 27.0 30.8 22.4 76 3.1 N 6 9 3 5 1007.3 - 0.0
28/11:00pm 26.9 30.2 22.5 77 3.0 NNW 9 11 5 6 1007.2 - 0.0
28/10:30pm 27.2 30.7 22.8 77 3.0 NNW 9 13 5 7 1006.9 - 0.0
28/10:00pm 27.6 31.5 23.6 79 2.8 NNW 9 11 5 6 1006.6 - 0.0
28/09:30pm 28.8 32.9 23.0 71 4.0 N 6 7 3 4 1006.0 - 0.0
28/09:00pm 28.7 34.8 24.5 78 2.9 CALM 0 0 0 0 1005.8 1004.7 0.0
28/08:30pm 30.0 34.3 21.1 59 6.0 CALM 0 0 0 0 1005.5 - 0.0
28/08:00pm 30.2 34.4 23.1 65 4.9 NNE 6 7 3 4 1005.2 - 0.0
28/07:30pm 30.7 34.5 22.8 62 5.4 NNE 7 7 4 4 1004.7 - 0.0
28/07:00pm 31.7 35.2 22.1 56 6.6 NE 7 9 4 5 1004.2 - 0.0
28/06:30pm 33.3 35.5 20.4 46 8.6 ESE 9 11 5 6 1003.6 - 0.0
28/06:00pm 33.7 35.6 20.5 46 8.9 ESE 11 15 6 8 1003.2 1002.1 0.0
28/05:30pm 33.3 35.7 21.5 50 8.0 E 11 13 6 7 1003.0 - 0.0
28/05:00pm 33.5 37.6 23.2 54 7.2 SE 7 9 4 5 1002.8 - 0.0
28/04:30pm 33.6 36.5 21.7 49 8.1 SSE 9 11 5 6 1002.5 - 0.0
28/04:00pm 33.8 37.7 22.9 53 7.6 SSE 7 11 4 6 1002.7 - 0.0
28/03:30pm 33.7 37.0 21.8 49 8.1 SW 7 11 4 6 1003.3 - 0.0
28/03:00pm 33.6 36.7 21.4 48 8.3 SE 7 13 4 7 1003.6 1002.5 0.0
28/02:30pm 33.7 36.8 21.5 49 8.3 S 7 11 4 6 1004.0 - 0.0
28/02:00pm 33.8 37.3 22.9 53 7.6 SE 9 15 5 8 1004.3 - 0.0

Other Formats:

Comma delimited format used in spreadsheet applications
http://www.bom.gov.au/fwo/IDD60801/IDD60801.94131.axf

JavaScript Object Notation format (JSON) in row-major order
http://www.bom.gov.au/fwo/IDD60801/IDD60801.94131.json